sensor_id;sensor_type;location;lat;lon;timestamp;pressure;altitude;pressure_sealevel;temperature;humidity
51239;BME280;38154;47.548;18.828;2023-06-19T00:00:20;98703.44;;;15.26;100.00
51239;BME280;38154;47.548;18.828;2023-06-19T00:02:46;98700.84;;;15.23;100.00
51239;BME280;38154;47.548;18.828;2023-06-19T00:05:12;98704.50;;;15.15;100.00
51239;BME280;38154;47.548;18.828;2023-06-19T00:07:38;98706.37;;;15.09;100.00
51239;BME280;38154;47.548;18.828;2023-06-19T00:10:05;98700.31;;;15.05;100.00
51239;BME280;38154;47.548;18.828;2023-06-19T00:12:32;98698.56;;;15.04;100.00
51239;BME280;38154;47.548;18.828;2023-06-19T00:14:58;98701.16;;;15.06;100.00
51239;BME280;38154;47.548;18.828;2023-06-19T00:17:24;98707.31;;;15.03;100.00
51239;BME280;38154;47.548;18.828;2023-06-19T00:19:52;98709.16;;;14.98;100.00
51239;BME280;38154;47.548;18.828;2023-06-19T00:22:19;98708.34;;;14.96;100.00
51239;BME280;38154;47.548;18.828;2023-06-19T00:24:45;98707.50;;;14.94;100.00
51239;BME280;38154;47.548;18.828;2023-06-19T00:27:11;98709.34;;;14.89;100.00
51239;BME280;38154;47.548;18.828;2023-06-19T00:29:37;98698.13;;;14.79;100.00
51239;BME280;38154;47.548;18.828;2023-06-19T00:32:03;98714.88;;;14.72;100.00
51239;BME280;38154;47.548;18.828;2023-06-19T00:34:30;98707.97;;;14.64;100.00
51239;BME280;38154;47.548;18.828;2023-06-19T00:36:57;98713.31;;;14.60;100.00
51239;BME280;38154;47.548;18.828;2023-06-19T00:39:23;98716.81;;;14.59;100.00
51239;BME280;38154;47.548;18.828;2023-06-19T00:41:51;98702.03;;;14.53;100.00
51239;BME280;38154;47.548;18.828;2023-06-19T00:44:17;98710.84;;;14.47;100.00
51239;BME280;38154;47.548;18.828;2023-06-19T00:46:43;98702.12;;;14.45;100.00
51239;BME280;38154;47.548;18.828;2023-06-19T00:49:10;98708.19;;;14.49;100.00
51239;BME280;38154;47.548;18.828;2023-06-19T00:51:37;98708.22;;;14.47;100.00
51239;BME280;38154;47.548;18.828;2023-06-19T00:54:04;98707.44;;;14.41;100.00
51239;BME280;38154;47.548;18.828;2023-06-19T00:56:31;98704.03;;;14.36;100.00
51239;BME280;38154;47.548;18.828;2023-06-19T00:58:57;98697.97;;;14.31;100.00
51239;BME280;38154;47.548;18.828;2023-06-19T01:01:24;98696.28;;;14.28;100.00
51239;BME280;38154;47.548;18.828;2023-06-19T01:03:50;98693.66;;;14.29;100.00
51239;BME280;38154;47.548;18.828;2023-06-19T01:06:21;98696.88;;;14.45;100.00
51239;BME280;38154;47.548;18.828;2023-06-19T01:08:58;98695.84;;;14.56;100.00
51239;BME280;38154;47.548;18.828;2023-06-19T01:11:32;98692.28;;;14.63;100.00
51239;BME280;38154;47.548;18.828;2023-06-19T01:14:04;98689.69;;;14.61;100.00
51239;BME280;38154;47.548;18.828;2023-06-19T01:16:31;98684.47;;;14.60;100.00
51239;BME280;38154;47.548;18.828;2023-06-19T01:18:59;98688.88;;;14.55;100.00
51239;BME280;38154;47.548;18.828;2023-06-19T01:21:25;98689.75;;;14.54;100.00
51239;BME280;38154;47.548;18.828;2023-06-19T01:23:51;98689.72;;;14.57;100.00
51239;BME280;38154;47.548;18.828;2023-06-19T01:26:17;98684.47;;;14.57;100.00
51239;BME280;38154;47.548;18.828;2023-06-19T01:28:46;98674.78;;;14.63;100.00
51239;BME280;38154;47.548;18.828;2023-06-19T01:31:20;98672.97;;;14.67;100.00
51239;BME280;38154;47.548;18.828;2023-06-19T01:33:47;98680.81;;;14.69;100.00
51239;BME280;38154;47.548;18.828;2023-06-19T01:36:20;98672.00;;;14.71;100.00
51239;BME280;38154;47.548;18.828;2023-06-19T01:38:47;98675.41;;;14.76;100.00
51239;BME280;38154;47.548;18.828;2023-06-19T01:41:15;98674.47;;;14.80;100.00
51239;BME280;38154;47.548;18.828;2023-06-19T01:43:42;98673.53;;;14.84;100.00
51239;BME280;38154;47.548;18.828;2023-06-19T01:46:08;98675.34;;;14.81;100.00
51239;BME280;38154;47.548;18.828;2023-06-19T01:48:35;98669.31;;;14.76;100.00
51239;BME280;38154;47.548;18.828;2023-06-19T01:51:02;98668.50;;;14.71;100.00
51239;BME280;38154;47.548;18.828;2023-06-19T01:53:32;98665.88;;;14.72;100.00
51239;BME280;38154;47.548;18.828;2023-06-19T01:56:01;98662.28;;;14.76;100.00
51239;BME280;38154;47.548;18.828;2023-06-19T01:58:27;98666.66;;;14.77;100.00
51239;BME280;38154;47.548;18.828;2023-06-19T02:00:53;98661.44;;;14.76;100.00
51239;BME280;38154;47.548;18.828;2023-06-19T02:03:19;98662.38;;;14.72;100.00
51239;BME280;38154;47.548;18.828;2023-06-19T02:05:45;98658.97;;;14.68;100.00
51239;BME280;38154;47.548;18.828;2023-06-19T02:08:10;98655.59;;;14.60;100.00
51239;BME280;38154;47.548;18.828;2023-06-19T02:10:36;98662.66;;;14.55;100.00
51239;BME280;38154;47.548;18.828;2023-06-19T02:13:02;98659.22;;;14.50;100.00
51239;BME280;38154;47.548;18.828;2023-06-19T02:15:28;98664.50;;;14.48;100.00
51239;BME280;38154;47.548;18.828;2023-06-19T02:17:57;98671.50;;;14.46;100.00
51239;BME280;38154;47.548;18.828;2023-06-19T02:20:23;98667.97;;;14.48;100.00
51239;BME280;38154;47.548;18.828;2023-06-19T02:22:52;98672.38;;;14.48;100.00
51239;BME280;38154;47.548;18.828;2023-06-19T02:25:18;98675.03;;;14.46;100.00
51239;BME280;38154;47.548;18.828;2023-06-19T02:27:44;98681.87;;;14.55;100.00
51239;BME280;38154;47.548;18.828;2023-06-19T02:30:11;98679.06;;;14.68;100.00
51239;BME280;38154;47.548;18.828;2023-06-19T02:32:37;98682.50;;;14.71;100.00
51239;BME280;38154;47.548;18.828;2023-06-19T02:35:05;98685.19;;;14.68;100.00
51239;BME280;38154;47.548;18.828;2023-06-19T02:37:31;98679.19;;;14.58;100.00
51239;BME280;38154;47.548;18.828;2023-06-19T02:39:57;98670.44;;;14.59;100.00
51239;BME280;38154;47.548;18.828;2023-06-19T02:42:23;98681.06;;;14.50;100.00
51239;BME280;38154;47.548;18.828;2023-06-19T02:44:49;98683.81;;;14.42;100.00
51239;BME280;38154;47.548;18.828;2023-06-19T02:47:15;98683.09;;;14.33;100.00
51239;BME280;38154;47.548;18.828;2023-06-19T02:49:41;98680.59;;;14.25;100.00
51239;BME280;38154;47.548;18.828;2023-06-19T02:52:08;98692.84;;;14.24;100.00
51239;BME280;38154;47.548;18.828;2023-06-19T02:54:34;98688.47;;;14.25;100.00
51239;BME280;38154;47.548;18.828;2023-06-19T02:57:00;98695.50;;;14.23;100.00
51239;BME280;38154;47.548;18.828;2023-06-19T02:59:26;98691.16;;;14.19;100.00
51239;BME280;38154;47.548;18.828;2023-06-19T03:01:52;98686.94;;;14.10;100.00
51239;BME280;38154;47.548;18.828;2023-06-19T03:04:18;98686.94;;;14.10;100.00
51239;BME280;38154;47.548;18.828;2023-06-19T03:06:43;98686.94;;;14.10;100.00
51239;BME280;38154;47.548;18.828;2023-06-19T03:09:09;98687.78;;;14.10;100.00
51239;BME280;38154;47.548;18.828;2023-06-19T03:11:41;98696.50;;;14.13;100.00
51239;BME280;38154;47.548;18.828;2023-06-19T03:14:07;98703.41;;;14.20;100.00
51239;BME280;38154;47.548;18.828;2023-06-19T03:16:34;98703.19;;;14.34;100.00
51239;BME280;38154;47.548;18.828;2023-06-19T03:19:00;98705.81;;;14.34;100.00
51239;BME280;38154;47.548;18.828;2023-06-19T03:21:26;98706.69;;;14.33;100.00
51239;BME280;38154;47.548;18.828;2023-06-19T03:23:53;98705.87;;;14.29;100.00
51239;BME280;38154;47.548;18.828;2023-06-19T03:26:19;98707.59;;;14.32;100.00
51239;BME280;38154;47.548;18.828;2023-06-19T03:28:45;98706.63;;;14.37;100.00
51239;BME280;38154;47.548;18.828;2023-06-19T03:31:13;98710.97;;;14.41;100.00
51239;BME280;38154;47.548;18.828;2023-06-19T03:33:39;98694.22;;;14.48;100.00
51239;BME280;38154;47.548;18.828;2023-06-19T03:36:05;98698.44;;;14.57;100.00
51239;BME280;38154;47.548;18.828;2023-06-19T03:38:31;98691.34;;;14.65;100.00
51239;BME280;38154;47.548;18.828;2023-06-19T03:40:57;98692.72;;;14.88;100.00
51239;BME280;38154;47.548;18.828;2023-06-19T03:43:23;98686.84;;;15.24;100.00
51239;BME280;38154;47.548;18.828;2023-06-19T03:45:48;98694.09;;;15.54;100.00
51239;BME280;38154;47.548;18.828;2023-06-19T03:48:16;98697.91;;;15.83;100.00
51239;BME280;38154;47.548;18.828;2023-06-19T03:50:42;98694.03;;;16.01;100.00
51239;BME280;38154;47.548;18.828;2023-06-19T03:53:08;98696.38;;;16.13;100.00
51239;BME280;38154;47.548;18.828;2023-06-19T03:55:34;98695.84;;;16.37;100.00
51239;BME280;38154;47.548;18.828;2023-06-19T03:58:00;98692.03;;;16.50;100.00
51239;BME280;38154;47.548;18.828;2023-06-19T04:00:26;98696.16;;;16.60;100.00
51239;BME280;38154;47.548;18.828;2023-06-19T04:02:52;98695.16;;;16.66;100.00
51239;BME280;38154;47.548;18.828;2023-06-19T04:05:17;98700.00;;;16.84;100.00
51239;BME280;38154;47.548;18.828;2023-06-19T04:07:45;98696.91;;;17.03;99.00
51239;BME280;38154;47.548;18.828;2023-06-19T04:10:11;98699.56;;;17.34;95.49
51239;BME280;38154;47.548;18.828;2023-06-19T04:12:38;98700.81;;;17.52;92.30
51239;BME280;38154;47.548;18.828;2023-06-19T04:15:04;98712.25;;;17.83;95.25
51239;BME280;38154;47.548;18.828;2023-06-19T04:17:30;98714.13;;;18.10;90.21
51239;BME280;38154;47.548;18.828;2023-06-19T04:19:56;98709.41;;;18.48;92.33
51239;BME280;38154;47.548;18.828;2023-06-19T04:22:22;98715.94;;;18.65;89.50
51239;BME280;38154;47.548;18.828;2023-06-19T04:24:47;98707.22;;;19.16;82.23
51239;BME280;38154;47.548;18.828;2023-06-19T04:27:13;98710.94;;;20.08;76.62
51239;BME280;38154;47.548;18.828;2023-06-19T04:29:39;98712.03;;;20.70;72.17
51239;BME280;38154;47.548;18.828;2023-06-19T04:32:05;98709.41;;;20.91;74.96
51239;BME280;38154;47.548;18.828;2023-06-19T04:34:41;98709.31;;;21.15;74.14
51239;BME280;38154;47.548;18.828;2023-06-19T04:37:12;98708.03;;;21.64;71.85
51239;BME280;38154;47.548;18.828;2023-06-19T04:39:38;98709.00;;;22.58;63.18
51239;BME280;38154;47.548;18.828;2023-06-19T04:42:04;98702.66;;;23.15;66.05
51239;BME280;38154;47.548;18.828;2023-06-19T04:44:30;98710.38;;;22.85;64.32
51239;BME280;38154;47.548;18.828;2023-06-19T04:46:59;98714.03;;;22.27;67.51
51239;BME280;38154;47.548;18.828;2023-06-19T04:49:29;98709.66;;;21.48;65.81
51239;BME280;38154;47.548;18.828;2023-06-19T04:51:58;98715.94;;;21.25;70.35
51239;BME280;38154;47.548;18.828;2023-06-19T04:54:25;98708.72;;;21.28;70.59
51239;BME280;38154;47.548;18.828;2023-06-19T04:56:51;98715.06;;;21.24;75.73
51239;BME280;38154;47.548;18.828;2023-06-19T04:59:18;98713.22;;;21.26;80.32
51239;BME280;38154;47.548;18.828;2023-06-19T05:01:44;98719.19;;;21.31;80.33
51239;BME280;38154;47.548;18.828;2023-06-19T05:04:10;98714.03;;;21.49;82.78
51239;BME280;38154;47.548;18.828;2023-06-19T05:06:39;98716.25;;;21.79;82.75
51239;BME280;38154;47.548;18.828;2023-06-19T05:09:05;98725.59;;;22.07;78.78
51239;BME280;38154;47.548;18.828;2023-06-19T05:11:31;98729.00;;;22.29;71.26
51239;BME280;38154;47.548;18.828;2023-06-19T05:13:57;98730.94;;;22.45;74.29
51239;BME280;38154;47.548;18.828;2023-06-19T05:16:23;98728.16;;;22.65;74.91
51239;BME280;38154;47.548;18.828;2023-06-19T05:18:49;98737.66;;;22.88;72.96
51239;BME280;38154;47.548;18.828;2023-06-19T05:21:17;98741.88;;;22.92;71.90
51239;BME280;38154;47.548;18.828;2023-06-19T05:23:42;98737.75;;;23.04;72.10
51239;BME280;38154;47.548;18.828;2023-06-19T05:26:08;98747.31;;;22.91;75.41
51239;BME280;38154;47.548;18.828;2023-06-19T05:28:34;98740.22;;;23.09;77.47
51239;BME280;38154;47.548;18.828;2023-06-19T05:31:00;98745.66;;;23.06;76.84
51239;BME280;38154;47.548;18.828;2023-06-19T05:33:26;98755.81;;;22.97;74.38
51239;BME280;38154;47.548;18.828;2023-06-19T05:35:52;98743.59;;;23.30;72.92
51239;BME280;38154;47.548;18.828;2023-06-19T05:38:22;98744.69;;;23.43;69.48
51239;BME280;38154;47.548;18.828;2023-06-19T05:40:51;98753.13;;;23.34;70.42
51239;BME280;38154;47.548;18.828;2023-06-19T05:43:17;98757.09;;;23.43;70.81
51239;BME280;38154;47.548;18.828;2023-06-19T05:45:44;98758.09;;;23.75;68.37
51239;BME280;38154;47.548;18.828;2023-06-19T05:48:10;98757.69;;;24.00;60.31
51239;BME280;38154;47.548;18.828;2023-06-19T05:50:36;98757.34;;;24.22;61.31
51239;BME280;38154;47.548;18.828;2023-06-19T05:53:02;98751.81;;;24.59;62.90
51239;BME280;38154;47.548;18.828;2023-06-19T05:55:27;98757.78;;;24.47;57.94
51239;BME280;38154;47.548;18.828;2023-06-19T05:57:55;98753.50;;;24.44;58.65
51239;BME280;38154;47.548;18.828;2023-06-19T06:00:20;98757.84;;;24.62;56.79
51239;BME280;38154;47.548;18.828;2023-06-19T06:02:46;98764.75;;;24.97;53.73
51239;BME280;38154;47.548;18.828;2023-06-19T06:05:12;98771.63;;;25.47;57.29
51239;BME280;38154;47.548;18.828;2023-06-19T06:07:38;98764.47;;;25.48;53.05
51239;BME280;38154;47.548;18.828;2023-06-19T06:10:04;98768.97;;;25.62;52.06
51239;BME280;38154;47.548;18.828;2023-06-19T06:12:33;98771.84;;;25.87;49.16
51239;BME280;38154;47.548;18.828;2023-06-19T06:15:01;98770.38;;;26.26;49.76
51239;BME280;38154;47.548;18.828;2023-06-19T06:17:27;98772.19;;;26.82;47.44
51239;BME280;38154;47.548;18.828;2023-06-19T06:19:53;98779.69;;;27.70;45.62
51239;BME280;38154;47.548;18.828;2023-06-19T06:22:19;98781.34;;;29.09;41.16
51239;BME280;38154;47.548;18.828;2023-06-19T06:24:45;98801.59;;;30.65;38.92
51239;BME280;38154;47.548;18.828;2023-06-19T06:27:12;98802.06;;;31.57;36.82
51239;BME280;38154;47.548;18.828;2023-06-19T06:29:39;98791.19;;;31.15;36.34
51239;BME280;38154;47.548;18.828;2023-06-19T06:32:06;98796.25;;;31.08;37.10
51239;BME280;38154;47.548;18.828;2023-06-19T06:34:33;98796.41;;;30.84;36.49
51239;BME280;38154;47.548;18.828;2023-06-19T06:37:00;98793.00;;;31.26;35.65
51239;BME280;38154;47.548;18.828;2023-06-19T06:39:26;98806.38;;;32.73;32.65
51239;BME280;38154;47.548;18.828;2023-06-19T06:41:52;98807.84;;;33.85;30.33
51239;BME280;38154;47.548;18.828;2023-06-19T06:44:18;98819.28;;;35.09;28.21
51239;BME280;38154;47.548;18.828;2023-06-19T06:46:44;98814.16;;;36.65;26.85
51239;BME280;38154;47.548;18.828;2023-06-19T06:49:11;98821.22;;;36.84;26.56
51239;BME280;38154;47.548;18.828;2023-06-19T06:51:37;98818.63;;;37.58;25.26
51239;BME280;38154;47.548;18.828;2023-06-19T06:54:03;98817.81;;;37.66;25.22
51239;BME280;38154;47.548;18.828;2023-06-19T06:56:29;98820.59;;;37.07;25.80
51239;BME280;38154;47.548;18.828;2023-06-19T06:58:55;98813.34;;;37.48;25.65
51239;BME280;38154;47.548;18.828;2023-06-19T07:01:21;98819.37;;;38.41;24.93
51239;BME280;38154;47.548;18.828;2023-06-19T07:03:47;98819.44;;;38.25;23.67
51239;BME280;38154;47.548;18.828;2023-06-19T07:06:12;98822.03;;;38.66;22.70
51239;BME280;38154;47.548;18.828;2023-06-19T07:08:38;98817.91;;;38.05;23.32
51239;BME280;38154;47.548;18.828;2023-06-19T07:11:07;98818.56;;;38.80;23.57
51239;BME280;38154;47.548;18.828;2023-06-19T07:13:33;98819.03;;;38.36;22.48
51239;BME280;38154;47.548;18.828;2023-06-19T07:15:59;98825.72;;;38.73;22.39
51239;BME280;38154;47.548;18.828;2023-06-19T07:18:27;98823.50;;;38.12;24.25
51239;BME280;38154;47.548;18.828;2023-06-19T07:20:53;98830.28;;;37.09;23.51
51239;BME280;38154;47.548;18.828;2023-06-19T07:23:19;98824.03;;;35.43;25.70
51239;BME280;38154;47.548;18.828;2023-06-19T07:25:46;98813.50;;;36.02;26.38
51239;BME280;38154;47.548;18.828;2023-06-19T07:28:13;98821.56;;;34.59;27.36
51239;BME280;38154;47.548;18.828;2023-06-19T07:30:39;98811.44;;;33.27;28.82
51239;BME280;38154;47.548;18.828;2023-06-19T07:33:05;98810.00;;;33.33;28.55
51239;BME280;38154;47.548;18.828;2023-06-19T07:35:31;98820.31;;;36.33;25.60
51239;BME280;38154;47.548;18.828;2023-06-19T07:37:57;98824.41;;;36.37;25.52
51239;BME280;38154;47.548;18.828;2023-06-19T07:40:23;98816.59;;;34.16;27.50
51239;BME280;38154;47.548;18.828;2023-06-19T07:42:48;98808.28;;;32.21;29.83
51239;BME280;38154;47.548;18.828;2023-06-19T07:45:14;98803.44;;;30.19;33.84
51239;BME280;38154;47.548;18.828;2023-06-19T07:47:40;98802.22;;;29.05;35.81
51239;BME280;38154;47.548;18.828;2023-06-19T07:50:06;98801.88;;;29.10;37.25
51239;BME280;38154;47.548;18.828;2023-06-19T07:52:32;98805.91;;;31.86;32.81
51239;BME280;38154;47.548;18.828;2023-06-19T07:54:59;98802.16;;;34.63;27.99
51239;BME280;38154;47.548;18.828;2023-06-19T07:57:26;98823.12;;;36.23;25.86
51239;BME280;38154;47.548;18.828;2023-06-19T07:59:53;98823.62;;;36.95;24.38
51239;BME280;38154;47.548;18.828;2023-06-19T08:02:19;98819.09;;;37.12;24.73
51239;BME280;38154;47.548;18.828;2023-06-19T08:04:46;98821.00;;;37.37;25.29
51239;BME280;38154;47.548;18.828;2023-06-19T08:07:12;98823.22;;;37.41;25.80
51239;BME280;38154;47.548;18.828;2023-06-19T08:09:37;98826.28;;;37.46;23.81
51239;BME280;38154;47.548;18.828;2023-06-19T08:12:04;98832.91;;;37.27;23.74
51239;BME280;38154;47.548;18.828;2023-06-19T08:14:30;98817.59;;;38.00;23.59
51239;BME280;38154;47.548;18.828;2023-06-19T08:16:55;98822.88;;;38.97;22.90
51239;BME280;38154;47.548;18.828;2023-06-19T08:19:21;98822.34;;;38.07;22.76
51239;BME280;38154;47.548;18.828;2023-06-19T08:21:47;98822.34;;;37.24;22.81
51239;BME280;38154;47.548;18.828;2023-06-19T08:24:13;98822.56;;;37.47;23.94
51239;BME280;38154;47.548;18.828;2023-06-19T08:26:39;98815.53;;;38.02;23.93
51239;BME280;38154;47.548;18.828;2023-06-19T08:29:05;98813.22;;;37.75;23.64
51239;BME280;38154;47.548;18.828;2023-06-19T08:31:31;98814.19;;;37.98;23.30
51239;BME280;38154;47.548;18.828;2023-06-19T08:33:56;98810.25;;;38.01;23.80
51239;BME280;38154;47.548;18.828;2023-06-19T08:36:23;98823.59;;;38.52;22.75
51239;BME280;38154;47.548;18.828;2023-06-19T08:38:49;98815.75;;;38.57;23.15
51239;BME280;38154;47.548;18.828;2023-06-19T08:41:17;98818.97;;;37.88;23.90
51239;BME280;38154;47.548;18.828;2023-06-19T08:43:45;98823.66;;;37.12;24.05
51239;BME280;38154;47.548;18.828;2023-06-19T08:46:14;98822.72;;;37.87;23.95
51239;BME280;38154;47.548;18.828;2023-06-19T08:48:40;98818.81;;;37.90;23.16
51239;BME280;38154;47.548;18.828;2023-06-19T08:51:07;98819.31;;;37.27;23.89
51239;BME280;38154;47.548;18.828;2023-06-19T08:53:35;98811.44;;;36.65;25.32
51239;BME280;38154;47.548;18.828;2023-06-19T08:56:04;98812.28;;;36.57;25.88
51239;BME280;38154;47.548;18.828;2023-06-19T08:58:30;98815.47;;;37.04;25.05
51239;BME280;38154;47.548;18.828;2023-06-19T09:00:59;98829.44;;;37.09;24.17
51239;BME280;38154;47.548;18.828;2023-06-19T09:03:25;98821.03;;;35.91;24.87
51239;BME280;38154;47.548;18.828;2023-06-19T09:05:51;98819.31;;;35.45;26.10
51239;BME280;38154;47.548;18.828;2023-06-19T09:08:18;98818.06;;;35.22;27.16
51239;BME280;38154;47.548;18.828;2023-06-19T09:10:58;98816.22;;;34.77;26.88
51239;BME280;38154;47.548;18.828;2023-06-19T09:13:25;98807.50;;;34.08;28.56
51239;BME280;38154;47.548;18.828;2023-06-19T09:16:07;98810.91;;;34.85;27.37
51239;BME280;38154;47.548;18.828;2023-06-19T09:18:47;98817.00;;;35.95;27.06
51239;BME280;38154;47.548;18.828;2023-06-19T09:21:17;98820.72;;;35.32;26.22
51239;BME280;38154;47.548;18.828;2023-06-19T09:23:45;98811.47;;;35.06;27.21
51239;BME280;38154;47.548;18.828;2023-06-19T09:26:15;98819.53;;;35.70;27.21
51239;BME280;38154;47.548;18.828;2023-06-19T09:28:43;98822.91;;;36.85;25.51
51239;BME280;38154;47.548;18.828;2023-06-19T09:31:10;98817.78;;;37.41;25.06
51239;BME280;38154;47.548;18.828;2023-06-19T09:33:37;98821.16;;;38.01;24.09
51239;BME280;38154;47.548;18.828;2023-06-19T09:36:05;98814.19;;;38.07;24.05
51239;BME280;38154;47.548;18.828;2023-06-19T09:38:33;98816.78;;;37.75;23.58
51239;BME280;38154;47.548;18.828;2023-06-19T09:41:03;98806.03;;;37.24;26.01
51239;BME280;38154;47.548;18.828;2023-06-19T09:43:36;98808.09;;;38.60;23.85
51239;BME280;38154;47.548;18.828;2023-06-19T09:46:04;98808.22;;;38.67;24.14
51239;BME280;38154;47.548;18.828;2023-06-19T09:48:32;98806.50;;;38.58;23.54
51239;BME280;38154;47.548;18.828;2023-06-19T09:53:34;98806.50;;;37.11;24.90
51239;BME280;38154;47.548;18.828;2023-06-19T09:56:00;98789.63;;;36.40;24.75
51239;BME280;38154;47.548;18.828;2023-06-19T09:58:26;98789.91;;;36.29;24.50
51239;BME280;38154;47.548;18.828;2023-06-19T10:00:54;98793.16;;;36.33;25.73
51239;BME280;38154;47.548;18.828;2023-06-19T10:03:21;98790.19;;;36.52;25.84
51239;BME280;38154;47.548;18.828;2023-06-19T10:05:46;98790.47;;;36.92;24.58
51239;BME280;38154;47.548;18.828;2023-06-19T10:08:12;98794.41;;;36.98;24.62
51239;BME280;38154;47.548;18.828;2023-06-19T10:10:47;98788.19;;;37.46;22.99
51239;BME280;38154;47.548;18.828;2023-06-19T10:13:16;98790.06;;;37.46;23.24
51239;BME280;38154;47.548;18.828;2023-06-19T10:15:44;98787.31;;;37.95;23.13
51239;BME280;38154;47.548;18.828;2023-06-19T10:18:15;98778.31;;;37.37;23.56
51239;BME280;38154;47.548;18.828;2023-06-19T10:20:45;98768.41;;;37.03;23.53
51239;BME280;38154;47.548;18.828;2023-06-19T10:23:20;98779.41;;;36.85;23.75
51239;BME280;38154;47.548;18.828;2023-06-19T10:25:54;98773.06;;;36.68;24.72
51239;BME280;38154;47.548;18.828;2023-06-19T10:28:26;98773.63;;;36.29;24.21
51239;BME280;38154;47.548;18.828;2023-06-19T10:30:57;98777.41;;;36.87;24.76
51239;BME280;38154;47.548;18.828;2023-06-19T10:33:25;98783.78;;;37.70;22.75
51239;BME280;38154;47.548;18.828;2023-06-19T10:35:52;98778.31;;;37.62;22.79
51239;BME280;38154;47.548;18.828;2023-06-19T10:38:18;98775.56;;;37.12;23.63
51239;BME280;38154;47.548;18.828;2023-06-19T10:40:45;98779.91;;;36.72;23.66
51239;BME280;38154;47.548;18.828;2023-06-19T10:43:12;98773.72;;;35.67;25.09
51239;BME280;38154;47.548;18.828;2023-06-19T10:45:37;98775.72;;;36.44;24.34
51239;BME280;38154;47.548;18.828;2023-06-19T10:48:04;98775.84;;;35.81;23.77
51239;BME280;38154;47.548;18.828;2023-06-19T10:50:34;98765.84;;;36.08;23.76
51239;BME280;38154;47.548;18.828;2023-06-19T10:53:00;98776.00;;;36.06;23.35
51239;BME280;38154;47.548;18.828;2023-06-19T10:55:26;98771.38;;;36.25;23.62
51239;BME280;38154;47.548;18.828;2023-06-19T10:57:52;98770.16;;;37.29;22.56
51239;BME280;38154;47.548;18.828;2023-06-19T11:00:25;98770.81;;;36.47;23.42
51239;BME280;38154;47.548;18.828;2023-06-19T11:02:52;98769.59;;;36.42;24.21
51239;BME280;38154;47.548;18.828;2023-06-19T11:05:21;98773.19;;;36.50;24.80
51239;BME280;38154;47.548;18.828;2023-06-19T11:07:51;98771.97;;;36.79;23.76
51239;BME280;38154;47.548;18.828;2023-06-19T11:10:28;98767.72;;;36.85;22.85
51239;BME280;38154;47.548;18.828;2023-06-19T11:12:56;98769.06;;;36.38;23.20
51239;BME280;38154;47.548;18.828;2023-06-19T11:15:33;98767.41;;;36.45;24.80
51239;BME280;38154;47.548;18.828;2023-06-19T11:18:00;98759.69;;;36.24;24.69
51239;BME280;38154;47.548;18.828;2023-06-19T11:20:27;98765.81;;;35.29;23.43
51239;BME280;38154;47.548;18.828;2023-06-19T11:23:00;98764.53;;;34.60;25.11
51239;BME280;38154;47.548;18.828;2023-06-19T11:25:40;98759.06;;;34.42;26.25
51239;BME280;38154;47.548;18.828;2023-06-19T11:28:16;98757.38;;;34.04;27.92
51239;BME280;38154;47.548;18.828;2023-06-19T11:30:58;98746.94;;;33.61;29.27
51239;BME280;38154;47.548;18.828;2023-06-19T11:33:24;98737.31;;;33.39;28.97
51239;BME280;38154;47.548;18.828;2023-06-19T11:35:53;98738.03;;;33.12;29.08
51239;BME280;38154;47.548;18.828;2023-06-19T11:38:20;98735.00;;;32.76;27.66
51239;BME280;38154;47.548;18.828;2023-06-19T11:40:47;98739.88;;;32.92;27.91
51239;BME280;38154;47.548;18.828;2023-06-19T11:43:23;98736.91;;;32.54;27.25
51239;BME280;38154;47.548;18.828;2023-06-19T11:45:50;98727.84;;;32.55;28.28
51239;BME280;38154;47.548;18.828;2023-06-19T11:48:24;98728.75;;;32.66;29.01
51239;BME280;38154;47.548;18.828;2023-06-19T11:50:51;98727.75;;;32.86;27.62
51239;BME280;38154;47.548;18.828;2023-06-19T11:53:18;98732.06;;;32.99;27.78
51239;BME280;38154;47.548;18.828;2023-06-19T11:55:44;98740.44;;;33.05;27.46
51239;BME280;38154;47.548;18.828;2023-06-19T11:58:10;98737.75;;;33.05;28.46
51239;BME280;38154;47.548;18.828;2023-06-19T12:00:36;98729.91;;;33.32;27.32
51239;BME280;38154;47.548;18.828;2023-06-19T12:03:03;98732.72;;;33.50;26.22
51239;BME280;38154;47.548;18.828;2023-06-19T12:05:29;98730.50;;;33.25;26.98
51239;BME280;38154;47.548;18.828;2023-06-19T12:07:56;98723.94;;;33.18;26.59
51239;BME280;38154;47.548;18.828;2023-06-19T12:10:22;98725.38;;;32.83;27.21
51239;BME280;38154;47.548;18.828;2023-06-19T12:12:48;98724.47;;;32.73;27.69
51239;BME280;38154;47.548;18.828;2023-06-19T12:15:14;98721.50;;;32.76;28.28
51239;BME280;38154;47.548;18.828;2023-06-19T12:17:40;98717.09;;;33.14;28.21
51239;BME280;38154;47.548;18.828;2023-06-19T12:20:06;98715.00;;;33.27;27.96
51239;BME280;38154;47.548;18.828;2023-06-19T12:22:34;98712.84;;;33.31;27.33
51239;BME280;38154;47.548;18.828;2023-06-19T12:25:00;98718.25;;;32.92;28.33
51239;BME280;38154;47.548;18.828;2023-06-19T12:27:26;98708.38;;;32.52;28.61
51239;BME280;38154;47.548;18.828;2023-06-19T12:29:52;98704.06;;;32.30;29.25
51239;BME280;38154;47.548;18.828;2023-06-19T12:32:18;98708.88;;;32.16;30.28
51239;BME280;38154;47.548;18.828;2023-06-19T12:34:46;98705.31;;;31.85;29.79
51239;BME280;38154;47.548;18.828;2023-06-19T12:37:15;98705.16;;;31.35;30.42
51239;BME280;38154;47.548;18.828;2023-06-19T12:39:43;98697.94;;;31.56;32.73
51239;BME280;38154;47.548;18.828;2023-06-19T12:42:09;98697.72;;;31.69;31.06
51239;BME280;38154;47.548;18.828;2023-06-19T12:44:38;98693.97;;;31.91;31.32
51239;BME280;38154;47.548;18.828;2023-06-19T12:47:05;98689.53;;;31.80;31.13
51239;BME280;38154;47.548;18.828;2023-06-19T12:49:31;98698.03;;;31.76;30.06